Time;durP1;ratioP1;P1;durP2;ratioP2;P2;SDS_P1;SDS_P2;PMS_P1;PMS_P2;Temp;Humidity;BMP_temperature;BMP_pressure;BME280_temperature;BME280_humidity;BME280_pressure;Samples;Min_cycle;Max_cycle;Signal;HPM_P1;HPM_P2
2021/03/24 08:24:48;;;;;;;15.98;13.57;;;;;;;;;;10599821;27;20043;-89
2021/03/24 08:30:20;;;;;;;16.02;12.73;;;;;;;;;;10501360;28;20041;-88
2021/03/24 08:35:57;;;;;;;16.02;12.75;;;;;;;;;;10500927;28;20067;-89
2021/03/24 08:41:36;;;;;;;18.02;14.18;;;;;;;;;;10505210;28;20096;-87
2021/03/24 08:52:50;;;;;;;13.93;11.90;;;;;;;;;;10387752;28;20033;-88
2021/03/24 08:58:28;;;;;;;14.18;12.18;;;;;;;;;;10460638;28;20052;-87
2021/03/24 09:37:34;;;;;;;17.70;13.75;;;;;;;;;;10590248;27;20040;-88
2021/03/24 09:43:22;;;;;;;19.02;14.13;;;;;;;;;;10570419;28;20034;-88
2021/03/24 09:59:29;;;;;;;20.70;14.15;;;;;;;;;;10529197;28;20118;-88
2021/03/24 10:04:33;;;;;;;15.82;12.93;;;;;;;;;;10492712;28;20028;-88
2021/03/24 10:10:00;;;;;;;17.98;13.50;;;;;;;;;;10509640;28;20051;-88
2021/03/24 10:15:10;;;;;;;16.70;13.50;;;;;;;;;;10422116;28;20127;-89
2021/03/24 10:20:35;;;;;;;16.92;13.52;;;;;;;;;;10498443;28;20041;-88
2021/03/24 10:32:19;;;;;;;23.75;15.07;;;;;;;;;;10253654;29;20031;-90
2021/03/24 10:54:58;;;;;;;23.85;16.90;;;;;;;;;;10668030;22;20095;-88
2021/03/24 11:11:34;;;;;;;18.83;12.73;;;;;;;;;;10465881;28;20040;-88
2021/03/24 11:16:48;;;;;;;16.55;11.70;;;;;;;;;;10471663;28;20043;-88
2021/03/24 11:22:15;;;;;;;17.13;13.05;;;;;;;;;;10496212;28;20060;-86
2021/03/24 11:27:48;;;;;;;15.67;12.30;;;;;;;;;;10508382;28;20055;-84
2021/03/24 11:55:38;;;;;;;14.43;10.85;;;;;;;;;;10513485;28;20033;-88
2021/03/24 12:07:07;;;;;;;15.35;12.82;;;;;;;;;;10500642;28;20021;-87
2021/03/24 12:12:35;;;;;;;11.95;9.90;;;;;;;;;;10496711;28;20446;-87
2021/03/24 12:57:12;;;;;;;13.75;8.98;;;;;;;;;;10490063;28;20357;-87
2021/03/24 13:02:57;;;;;;;14.02;10.48;;;;;;;;;;10423727;28;20051;-87
2021/03/24 13:13:54;;;;;;;13.95;12.20;;;;;;;;;;10484599;28;20037;-89
2021/03/24 13:19:19;;;;;;;18.15;14.60;;;;;;;;;;10500674;28;20405;-88
2021/03/24 13:24:40;;;;;;;12.73;9.45;;;;;;;;;;10507289;28;20029;-88
2021/03/24 13:29:58;;;;;;;13.70;9.77;;;;;;;;;;10520096;28;20044;-86
2021/03/24 13:35:08;;;;;;;11.50;9.55;;;;;;;;;;10526761;28;20032;-87
2021/03/24 13:40:23;;;;;;;13.30;9.30;;;;;;;;;;10526543;28;20040;-87
2021/03/24 13:45:49;;;;;;;12.38;9.75;;;;;;;;;;10493147;28;20387;-88
2021/03/24 13:51:26;;;;;;;11.20;9.07;;;;;;;;;;10528638;28;20051;-87
2021/03/24 14:02:18;;;;;;;11.55;8.45;;;;;;;;;;10525200;28;20060;-86
2021/03/24 14:08:05;;;;;;;;;;;;;;;;;;;;;
2021/03/24 14:25:03;;;;;;;19.88;15.80;;;;;;;;;;10513650;28;20017;-87
2021/03/24 14:47:46;;;;;;;;;;;;;;;;;;;;;
2021/03/24 15:43:35;;;;;;;11.80;9.77;;;;;;;;;;10512431;28;20479;-87
2021/03/24 16:50:37;;;;;;;10.75;8.20;;;;;;;;;;11820839;22;20073;-85
2021/03/24 16:55:38;;;;;;;10.63;7.95;;;;;;;;;;10428901;28;20108;-86
2021/03/24 17:00:46;;;;;;;9.45;7.57;;;;;;;;;;10431243;28;20047;-84
2021/03/24 17:05:50;;;;;;;9.73;8.07;;;;;;;;;;10437028;28;20037;-85
2021/03/24 17:10:55;;;;;;;10.43;7.50;;;;;;;;;;10434090;28;20041;-84
2021/03/24 17:16:08;;;;;;;10.85;8.30;;;;;;;;;;10430781;28;20030;-84
2021/03/24 17:21:09;;;;;;;8.85;7.75;;;;;;;;;;10427161;28;20479;-83
2021/03/24 17:26:16;;;;;;;12.30;9.05;;;;;;;;;;10429918;28;20038;-84
2021/03/24 17:31:25;;;;;;;19.50;15.25;;;;;;;;;;10435422;28;20037;-84
2021/03/24 17:36:26;;;;;;;;;;;;;;;;;;10424093;28;20105;-84
2021/03/24 17:41:28;;;;;;;14.75;12.20;;;;;;;;;;10433780;28;19916;-82
2021/03/24 17:46:42;;;;;;;16.13;14.38;;;;;;;;;;10425496;28;20412;-83
2021/03/24 17:52:13;;;;;;;20.63;16.30;;;;;;;;;;10428296;28;20073;-85
2021/03/24 17:57:30;;;;;;;20.60;14.80;;;;;;;;;;10368285;28;20377;-86
2021/03/24 18:02:50;;;;;;;19.63;15.43;;;;;;;;;;10426720;28;20044;-83
2021/03/24 18:07:51;;;;;;;21.30;16.17;;;;;;;;;;10425473;28;20039;-86
2021/03/24 18:12:53;;;;;;;19.20;15.32;;;;;;;;;;10437169;28;20065;-85
2021/03/24 18:17:57;;;;;;;18.70;14.20;;;;;;;;;;10438261;28;20057;-85
2021/03/24 18:23:02;;;;;;;19.25;15.95;;;;;;;;;;10436298;28;20029;-86
2021/03/24 18:28:07;;;;;;;19.75;15.00;;;;;;;;;;10436727;28;20037;-84
2021/03/24 18:33:40;;;;;;;20.27;16.02;;;;;;;;;;10436353;28;20037;-86
2021/03/24 18:38:42;;;;;;;15.32;12.32;;;;;;;;;;10390378;28;20591;-84
2021/03/24 18:43:47;;;;;;;14.25;11.73;;;;;;;;;;10432897;28;20039;-84
2021/03/24 18:48:54;;;;;;;18.65;14.30;;;;;;;;;;10418439;28;20033;-85
2021/03/24 18:53:55;;;;;;;14.73;11.82;;;;;;;;;;10416464;28;20100;-85
2021/03/24 18:58:58;;;;;;;19.85;15.00;;;;;;;;;;10422774;28;20361;-85
2021/03/24 19:03:59;;;;;;;12.60;10.10;;;;;;;;;;10419860;28;20033;-87
2021/03/24 19:09:08;;;;;;;10.07;7.40;;;;;;;;;;10415023;28;20056;-85
2021/03/24 19:14:26;;;;;;;10.10;7.80;;;;;;;;;;10433099;28;20049;-86
2021/03/24 19:19:27;;;;;;;10.82;9.27;;;;;;;;;;10417555;28;20104;-85
2021/03/24 19:24:30;;;;;;;12.48;9.85;;;;;;;;;;10423282;28;20042;-84
2021/03/24 19:29:35;;;;;;;12.73;9.70;;;;;;;;;;10434197;28;20042;-85
2021/03/24 19:34:36;;;;;;;10.02;7.82;;;;;;;;;;10453975;28;20503;-86
2021/03/24 19:39:37;;;;;;;10.95;9.13;;;;;;;;;;10439734;28;20038;-86
2021/03/24 19:44:38;;;;;;;11.85;9.68;;;;;;;;;;10418280;28;20041;-86
2021/03/24 19:49:41;;;;;;;10.13;8.85;;;;;;;;;;10435183;28;20036;-86
2021/03/24 19:54:44;;;;;;;10.77;9.30;;;;;;;;;;10418154;28;20092;-86
2021/03/24 19:59:51;;;;;;;8.98;8.07;;;;;;;;;;10418983;28;20488;-85
2021/03/24 20:05:12;;;;;;;11.68;8.50;;;;;;;;;;10443161;28;20033;-86
2021/03/24 20:10:19;;;;;;;10.57;8.68;;;;;;;;;;10427299;28;20494;-86
2021/03/24 20:15:22;;;;;;;10.25;7.90;;;;;;;;;;10428304;28;20452;-86
2021/03/24 20:20:26;;;;;;;7.70;6.65;;;;;;;;;;10452372;28;20064;-85
2021/03/24 20:25:28;;;;;;;14.88;12.93;;;;;;;;;;10432416;28;20037;-86
2021/03/24 20:30:33;;;;;;;11.68;8.85;;;;;;;;;;10435892;28;20042;-84
2021/03/24 20:35:42;;;;;;;19.80;16.38;;;;;;;;;;10423381;28;20074;-84
2021/03/24 20:40:44;;;;;;;19.77;17.20;;;;;;;;;;10430500;28;20029;-85
2021/03/24 20:45:48;;;;;;;10.93;9.18;;;;;;;;;;10432653;28;20076;-85
2021/03/24 20:50:51;;;;;;;11.75;9.73;;;;;;;;;;10431145;28;20139;-84
2021/03/24 20:55:52;;;;;;;8.88;7.80;;;;;;;;;;10442024;28;20048;-84
2021/03/24 21:00:53;;;;;;;12.10;10.30;;;;;;;;;;10440646;28;20102;-86
2021/03/24 21:05:54;;;;;;;12.13;10.77;;;;;;;;;;10428508;28;20034;-85
2021/03/24 21:10:55;;;;;;;11.40;10.23;;;;;;;;;;10419776;28;20037;-85
2021/03/24 21:15:57;;;;;;;11.75;9.75;;;;;;;;;;10419633;28;20483;-86
2021/03/24 21:21:02;;;;;;;11.73;10.38;;;;;;;;;;10415820;28;20160;-83
